KLGF/LGF METAR and TAF weather

Enter ICAO airport designator
Station Type Date Time Source
KLGF METAR 2019/02/22 23:58 UTC NOAA

KLGF 222358Z AUTO 33014G21KT 10SM CLR 15/M06 A2999 RMK AO2 SLPNO T01471058 10151 20100 53019 $


Station Type Date Time Source
KLGF Decoded METAR 2019/02/22 23:58 UTC NOAA

Station name not available
Feb 22, 2019 - 06:58 PM EST / 2019.02.22 2358 UTC
Wind: from the NNW (330 degrees) at 16 MPH (14 KT) gusting to 24 MPH (21 KT):0
Visibility: 10 mile(s):0
Sky conditions: clear
Temperature: 58.5 F (14.7 C)
Dew Point: 21.6 F (-5.8 C)
Relative Humidity: 23%
Pressure (altimeter): 29.99 in. Hg (1015 hPa)
Pressure tendency: 0.06 inches (1.9 hPa) higher than three hours ago
ob: KLGF 222358Z AUTO 33014G21KT 10SM CLR 15/M06 A2999 RMK AO2 SLPNO T01471058 10151 20100 53019
cycle: 0

Station Type Date Time Source
KLGF TAF UTC NOAA

Error!


Example: see airport list